PROFILE

 METAR AND TAF INFORMATION
ADDS - METARS form results

(0106 UTC 20 November 2022)
http://aviationweather.gov/metar/data/
 
LEBB 200100Z AUTO 09004KT 9999 FEW050 10/07 Q1020
LEBB 200030Z AUTO VRB02KT 9999 FEW041 09/07 Q1020
TAF LEBB 192300Z 2000/2024 28009KT 9999 SCT020 BKN040 TX14/2014Z TN09/2005Z TEMPO 2008/2014 29015G25KT TEMPO 2000/2012 3000 SHRA SCT005 BKN010 SCT020TCU PROB40 TEMPO 2000/2008 3000 RA BR BKN010 

 AIRPORT MAP

 RUNWAY INFORMATION
Runway 10 Runway length 6562 ft Runway width 148 ft
Runway elevation 116 ft Runway displaced threshold 0 ft Runway heading 97
Runway 28 Runway length 6562 ft Runway width 148 ft
Runway elevation 129 ft Runway displaced threshold 0 ft Runway heading 277
Runway 12 Runway length 8530 ft Runway width 148 ft
Runway elevation 119 ft Runway displaced threshold 0 ft Runway heading 117
Runway 30 Runway length 8530 ft Runway width 148 ft
Runway elevation 128 ft Runway displaced threshold 1509 ft Runway heading 297

 AIRPORT FREQUENCIES
Type APP Name APP Frequency 120.7 MHZ
Type ATIS Name ATIS Frequency 118.825 MHZ
Type GND Name GND Frequency 121.7 MHZ
Type TWR Name TWR Frequency 118.5 MHZ

 AIRPORT NEAR NAVIGATION AIDS
Type VOR-DME Name Bilbao Frequency 115900 KHZ